Overview Statistics Trail Chart Weather Telemetry Raw packets
 

This is the latest recevied weather packets stored in our database for station/object VU3OPZ-13. If no packets are shown the sender has not sent any weather packets the latest 10 day(s).

<< 6 7 8 9 10 11 12 >>
Time Temp. Humidity Pressure Rain* Wind** Luminosity Snow
1788041076 21.67° C 87% 1009 hPa 0 mm - - -
1788039271 21.67° C 87% 1009 hPa 0 mm - - -
1788037467 21.67° C 86% 1009 hPa 0 mm - - -
1788035662 21.67° C 86% 1009 hPa 0 mm - - -
1788033858 22.22° C 83% 1010 hPa 0 mm - - -
1788032054 22.22° C 83% 1010 hPa 0 mm - - -
1788030249 22.22° C 81% 1011 hPa 0 mm - - -
1788028445 21.67° C 83% 1011 hPa 0 mm - - -
1788026641 22.22° C 81% 1012 hPa 0 mm - - -
1788024842 22.22° C 81% 1012 hPa 0 mm - - -
1788023032 22.22° C 80% 1012 hPa 0 mm - - -
1788020488 22.78° C 80% 1012 hPa 0 mm - - -
1788018684 22.78° C 81% 1012 hPa 0 mm - - -
1788016880 22.78° C 80% 1012 hPa 0 mm - - -
1788015076 22.78° C 80% 1012 hPa 0 mm - - -
1788013272 23.33° C 79% 1011 hPa 0 mm - - -
1788011467 23.33° C 79% 1011 hPa 0 mm - - -
1788009663 23.89° C 75% 1011 hPa 0 mm - - -
1788007858 23.89° C 75% 1010 hPa 0 mm - - -
1788006054 25.56° C 67% 1010 hPa 0 mm - - -
1788004250 25.56° C 67% 1010 hPa 0 mm - - -
1788002445 26.11° C 63% 1009 hPa 0 mm - - -
1788000641 26.67° C 62% 1009 hPa 0 mm - - -
1787998836 27.22° C 58% 1009 hPa 0 mm - - -
1787996220 27.78° C 59% 1009 hPa 0 mm - - -

* Rain latest hour (hover to see other rain measurements)
** Current wind speed in m/s (hover to see current wind gust speed)